sensor_id;sensor_type;location;lat;lon;timestamp;pressure;altitude;pressure_sealevel;temperature;humidity
41898;BME280;27576;53.366;-1.498;2023-04-19T00:01:06;101684.38;;;8.65;97.70
41898;BME280;27576;53.366;-1.498;2023-04-19T00:03:32;101658.06;;;8.54;97.65
41898;BME280;27576;53.366;-1.498;2023-04-19T00:05:57;101656.69;;;8.42;99.05
41898;BME280;27576;53.366;-1.498;2023-04-19T00:08:24;101652.47;;;8.44;98.47
41898;BME280;27576;53.366;-1.498;2023-04-19T00:10:50;101674.28;;;8.50;98.80
41898;BME280;27576;53.366;-1.498;2023-04-19T00:13:15;101675.00;;;8.48;99.12
41898;BME280;27576;53.366;-1.498;2023-04-19T00:15:41;101661.69;;;8.37;99.55
41898;BME280;27576;53.366;-1.498;2023-04-19T00:18:06;101676.72;;;8.47;99.76
41898;BME280;27576;53.366;-1.498;2023-04-19T00:20:32;101665.91;;;8.36;99.40
41898;BME280;27576;53.366;-1.498;2023-04-19T00:22:58;101676.47;;;8.41;98.91
41898;BME280;27576;53.366;-1.498;2023-04-19T00:25:24;101634.06;;;8.17;99.96
41898;BME280;27576;53.366;-1.498;2023-04-19T00:27:50;101648.13;;;8.23;100.00
41898;BME280;27576;53.366;-1.498;2023-04-19T00:30:15;101664.84;;;8.31;100.00
41898;BME280;27576;53.366;-1.498;2023-04-19T00:32:40;101625.06;;;8.07;100.00
41898;BME280;27576;53.366;-1.498;2023-04-19T00:35:06;101654.91;;;8.21;100.00
41898;BME280;27576;53.366;-1.498;2023-04-19T00:37:31;101638.44;;;8.18;100.00
41898;BME280;27576;53.366;-1.498;2023-04-19T00:39:57;101614.88;;;8.10;100.00
41898;BME280;27576;53.366;-1.498;2023-04-19T00:42:22;101636.97;;;8.24;100.00
41898;BME280;27576;53.366;-1.498;2023-04-19T00:44:47;101636.06;;;8.22;100.00
41898;BME280;27576;53.366;-1.498;2023-04-19T00:47:13;101597.56;;;8.07;100.00
41898;BME280;27576;53.366;-1.498;2023-04-19T00:49:39;101650.69;;;8.43;100.00
41898;BME280;27576;53.366;-1.498;2023-04-19T00:52:04;101624.34;;;8.30;100.00
41898;BME280;27576;53.366;-1.498;2023-04-19T00:54:32;101643.00;;;8.44;100.00
41898;BME280;27576;53.366;-1.498;2023-04-19T00:56:57;101627.28;;;8.38;100.00
41898;BME280;27576;53.366;-1.498;2023-04-19T00:59:23;101645.03;;;8.51;100.00
41898;BME280;27576;53.366;-1.498;2023-04-19T01:01:49;101648.56;;;8.53;100.00
41898;BME280;27576;53.366;-1.498;2023-04-19T01:04:14;101629.41;;;8.48;100.00
41898;BME280;27576;53.366;-1.498;2023-04-19T01:06:40;101642.44;;;8.51;100.00
41898;BME280;27576;53.366;-1.498;2023-04-19T01:09:06;101592.28;;;8.25;100.00
41898;BME280;27576;53.366;-1.498;2023-04-19T01:11:31;101607.28;;;8.34;100.00
41898;BME280;27576;53.366;-1.498;2023-04-19T01:13:58;101630.41;;;8.52;100.00
41898;BME280;27576;53.366;-1.498;2023-04-19T01:16:25;101640.16;;;8.59;100.00
41898;BME280;27576;53.366;-1.498;2023-04-19T01:18:51;101622.66;;;8.52;100.00
41898;BME280;27576;53.366;-1.498;2023-04-19T01:21:16;101618.38;;;8.52;100.00
41898;BME280;27576;53.366;-1.498;2023-04-19T01:23:42;101613.28;;;8.54;99.42
41898;BME280;27576;53.366;-1.498;2023-04-19T01:26:08;101620.94;;;8.52;100.00
41898;BME280;27576;53.366;-1.498;2023-04-19T01:28:33;101622.59;;;8.50;100.00
41898;BME280;27576;53.366;-1.498;2023-04-19T01:30:59;101612.88;;;8.45;100.00
41898;BME280;27576;53.366;-1.498;2023-04-19T01:33:24;101622.72;;;8.53;100.00
41898;BME280;27576;53.366;-1.498;2023-04-19T01:35:49;101598.75;;;8.36;100.00
41898;BME280;27576;53.366;-1.498;2023-04-19T01:38:15;101595.16;;;8.33;100.00
41898;BME280;27576;53.366;-1.498;2023-04-19T01:40:41;101627.81;;;8.52;100.00
41898;BME280;27576;53.366;-1.498;2023-04-19T01:43:07;101576.78;;;8.25;100.00
41898;BME280;27576;53.366;-1.498;2023-04-19T01:45:32;101621.78;;;8.51;100.00
41898;BME280;27576;53.366;-1.498;2023-04-19T01:47:59;101588.41;;;8.36;100.00
41898;BME280;27576;53.366;-1.498;2023-04-19T01:50:25;101597.00;;;8.35;100.00
41898;BME280;27576;53.366;-1.498;2023-04-19T01:52:51;101588.56;;;8.40;100.00
41898;BME280;27576;53.366;-1.498;2023-04-19T01:55:17;101579.59;;;8.31;100.00
41898;BME280;27576;53.366;-1.498;2023-04-19T01:57:42;101588.41;;;8.36;100.00
41898;BME280;27576;53.366;-1.498;2023-04-19T02:00:09;101594.00;;;8.46;100.00
41898;BME280;27576;53.366;-1.498;2023-04-19T02:02:36;101595.63;;;8.44;100.00
41898;BME280;27576;53.366;-1.498;2023-04-19T02:05:01;101562.09;;;8.24;100.00
41898;BME280;27576;53.366;-1.498;2023-04-19T02:07:27;101552.41;;;8.19;100.00
41898;BME280;27576;53.366;-1.498;2023-04-19T02:09:52;101569.28;;;8.31;100.00
41898;BME280;27576;53.366;-1.498;2023-04-19T02:12:18;101553.47;;;8.24;100.00
41898;BME280;27576;53.366;-1.498;2023-04-19T02:14:43;101590.41;;;8.42;100.00
41898;BME280;27576;53.366;-1.498;2023-04-19T02:17:08;101562.50;;;8.33;100.00
41898;BME280;27576;53.366;-1.498;2023-04-19T02:19:34;101563.06;;;8.26;100.00
41898;BME280;27576;53.366;-1.498;2023-04-19T02:22:00;101549.84;;;8.19;100.00
41898;BME280;27576;53.366;-1.498;2023-04-19T02:24:28;101577.22;;;8.36;100.00
41898;BME280;27576;53.366;-1.498;2023-04-19T02:26:54;101558.63;;;8.24;100.00
41898;BME280;27576;53.366;-1.498;2023-04-19T02:29:20;101570.94;;;8.29;100.00
41898;BME280;27576;53.366;-1.498;2023-04-19T02:31:48;101576.50;;;8.39;100.00
41898;BME280;27576;53.366;-1.498;2023-04-19T02:34:14;101555.13;;;8.22;100.00
41898;BME280;27576;53.366;-1.498;2023-04-19T02:36:39;101565.56;;;8.25;100.00
41898;BME280;27576;53.366;-1.498;2023-04-19T02:39:05;101557.25;;;8.11;100.00
41898;BME280;27576;53.366;-1.498;2023-04-19T02:41:30;101561.00;;;8.18;100.00
41898;BME280;27576;53.366;-1.498;2023-04-19T02:43:56;101578.03;;;8.35;100.00
41898;BME280;27576;53.366;-1.498;2023-04-19T02:46:21;101555.00;;;8.19;100.00
41898;BME280;27576;53.366;-1.498;2023-04-19T02:48:46;101572.81;;;8.33;100.00
41898;BME280;27576;53.366;-1.498;2023-04-19T02:51:16;101570.84;;;8.28;100.00
41898;BME280;27576;53.366;-1.498;2023-04-19T02:53:41;101563.75;;;8.22;100.00
41898;BME280;27576;53.366;-1.498;2023-04-19T02:56:07;101573.50;;;8.29;100.00
41898;BME280;27576;53.366;-1.498;2023-04-19T02:58:33;101569.16;;;8.28;100.00
41898;BME280;27576;53.366;-1.498;2023-04-19T03:00:59;101559.59;;;8.26;100.00
41898;BME280;27576;53.366;-1.498;2023-04-19T03:03:24;101568.44;;;8.32;100.00
41898;BME280;27576;53.366;-1.498;2023-04-19T03:05:50;101551.84;;;8.26;100.00
41898;BME280;27576;53.366;-1.498;2023-04-19T03:08:15;101568.59;;;8.35;100.00
41898;BME280;27576;53.366;-1.498;2023-04-19T03:10:40;101554.44;;;8.26;100.00
41898;BME280;27576;53.366;-1.498;2023-04-19T03:13:06;101569.28;;;8.31;100.00
41898;BME280;27576;53.366;-1.498;2023-04-19T03:15:31;101555.31;;;8.26;100.00
41898;BME280;27576;53.366;-1.498;2023-04-19T03:17:56;101538.72;;;8.21;100.00
41898;BME280;27576;53.366;-1.498;2023-04-19T03:20:22;101528.03;;;8.12;100.00
41898;BME280;27576;53.366;-1.498;2023-04-19T03:22:47;101531.63;;;8.16;100.00
41898;BME280;27576;53.366;-1.498;2023-04-19T03:25:13;101560.59;;;8.29;100.00
41898;BME280;27576;53.366;-1.498;2023-04-19T03:27:38;101550.84;;;8.22;100.00
41898;BME280;27576;53.366;-1.498;2023-04-19T03:30:05;101555.31;;;8.26;100.00
41898;BME280;27576;53.366;-1.498;2023-04-19T03:32:30;101563.25;;;8.31;100.00
41898;BME280;27576;53.366;-1.498;2023-04-19T03:34:56;101515.00;;;8.09;100.00
41898;BME280;27576;53.366;-1.498;2023-04-19T03:37:21;101557.06;;;8.27;100.00
41898;BME280;27576;53.366;-1.498;2023-04-19T03:39:47;101542.31;;;8.25;100.00
41898;BME280;27576;53.366;-1.498;2023-04-19T03:42:12;101559.09;;;8.34;100.00
41898;BME280;27576;53.366;-1.498;2023-04-19T03:44:37;101547.59;;;8.28;100.00
41898;BME280;27576;53.366;-1.498;2023-04-19T03:47:03;101553.78;;;8.31;100.00
41898;BME280;27576;53.366;-1.498;2023-04-19T03:49:28;101557.41;;;8.36;100.00
41898;BME280;27576;53.366;-1.498;2023-04-19T03:51:53;101543.22;;;8.25;100.00
41898;BME280;27576;53.366;-1.498;2023-04-19T03:54:19;101525.81;;;8.21;100.00
41898;BME280;27576;53.366;-1.498;2023-04-19T03:56:45;101538.06;;;8.25;100.00
41898;BME280;27576;53.366;-1.498;2023-04-19T03:59:10;101527.59;;;8.22;100.00
41898;BME280;27576;53.366;-1.498;2023-04-19T04:01:35;101511.72;;;8.13;100.00
41898;BME280;27576;53.366;-1.498;2023-04-19T04:04:06;101530.31;;;8.25;100.00
41898;BME280;27576;53.366;-1.498;2023-04-19T04:06:33;101518.91;;;8.20;100.00
41898;BME280;27576;53.366;-1.498;2023-04-19T04:08:58;101550.28;;;8.29;100.00
41898;BME280;27576;53.366;-1.498;2023-04-19T04:11:23;101548.75;;;8.34;100.00
41898;BME280;27576;53.366;-1.498;2023-04-19T04:13:49;101518.84;;;8.19;100.00
41898;BME280;27576;53.366;-1.498;2023-04-19T04:16:15;101546.22;;;8.36;100.00
41898;BME280;27576;53.366;-1.498;2023-04-19T04:18:40;101550.63;;;8.37;100.00
41898;BME280;27576;53.366;-1.498;2023-04-19T04:21:06;101526.94;;;8.28;100.00
41898;BME280;27576;53.366;-1.498;2023-04-19T04:23:31;101533.78;;;8.26;100.00
41898;BME280;27576;53.366;-1.498;2023-04-19T04:25:58;101515.63;;;8.24;100.00
41898;BME280;27576;53.366;-1.498;2023-04-19T04:28:30;101547.25;;;8.40;100.00
41898;BME280;27576;53.366;-1.498;2023-04-19T04:30:56;101534.09;;;8.33;100.00
41898;BME280;27576;53.366;-1.498;2023-04-19T04:33:26;101540.28;;;8.37;100.00
41898;BME280;27576;53.366;-1.498;2023-04-19T04:35:55;101542.97;;;8.40;100.00
41898;BME280;27576;53.366;-1.498;2023-04-19T04:38:20;101537.75;;;8.39;100.00
41898;BME280;27576;53.366;-1.498;2023-04-19T04:40:50;101548.22;;;8.42;100.00
41898;BME280;27576;53.366;-1.498;2023-04-19T04:43:21;101499.03;;;8.18;100.00
41898;BME280;27576;53.366;-1.498;2023-04-19T04:45:47;101536.75;;;8.36;100.00
41898;BME280;27576;53.366;-1.498;2023-04-19T04:48:12;101535.72;;;8.31;100.00
41898;BME280;27576;53.366;-1.498;2023-04-19T04:50:38;101541.22;;;8.39;100.00
41898;BME280;27576;53.366;-1.498;2023-04-19T04:53:03;101512.09;;;8.22;100.00
41898;BME280;27576;53.366;-1.498;2023-04-19T04:55:29;101521.97;;;8.32;100.00
41898;BME280;27576;53.366;-1.498;2023-04-19T04:57:54;101524.63;;;8.34;100.00
41898;BME280;27576;53.366;-1.498;2023-04-19T05:00:19;101548.44;;;8.48;100.00
41898;BME280;27576;53.366;-1.498;2023-04-19T05:02:45;101536.03;;;8.39;100.00
41898;BME280;27576;53.366;-1.498;2023-04-19T05:05:10;101523.84;;;8.36;100.00
41898;BME280;27576;53.366;-1.498;2023-04-19T05:07:36;101517.63;;;8.31;100.00
41898;BME280;27576;53.366;-1.498;2023-04-19T05:10:01;101553.78;;;8.52;100.00
41898;BME280;27576;53.366;-1.498;2023-04-19T05:12:26;101559.84;;;8.53;100.00
41898;BME280;27576;53.366;-1.498;2023-04-19T05:14:52;101520.09;;;8.28;100.00
41898;BME280;27576;53.366;-1.498;2023-04-19T05:17:17;101524.38;;;8.28;100.00
41898;BME280;27576;53.366;-1.498;2023-04-19T05:19:43;101556.31;;;8.51;100.00
41898;BME280;27576;53.366;-1.498;2023-04-19T05:22:08;101529.84;;;8.35;100.00
41898;BME280;27576;53.366;-1.498;2023-04-19T05:24:34;101566.53;;;8.48;100.00
41898;BME280;27576;53.366;-1.498;2023-04-19T05:26:59;101550.72;;;8.40;100.00
41898;BME280;27576;53.366;-1.498;2023-04-19T05:29:25;101568.19;;;8.46;100.00
41898;BME280;27576;53.366;-1.498;2023-04-19T05:31:51;101557.72;;;8.43;100.00
41898;BME280;27576;53.366;-1.498;2023-04-19T05:34:16;101556.84;;;8.42;100.00
41898;BME280;27576;53.366;-1.498;2023-04-19T05:36:41;101565.50;;;8.44;100.00
41898;BME280;27576;53.366;-1.498;2023-04-19T05:39:07;101557.59;;;8.40;100.00
41898;BME280;27576;53.366;-1.498;2023-04-19T05:41:33;101552.06;;;8.32;100.00
41898;BME280;27576;53.366;-1.498;2023-04-19T05:43:58;101554.97;;;8.38;100.00
41898;BME280;27576;53.366;-1.498;2023-04-19T05:46:24;101564.47;;;8.39;100.00
41898;BME280;27576;53.366;-1.498;2023-04-19T05:48:49;101550.38;;;8.32;100.00
41898;BME280;27576;53.366;-1.498;2023-04-19T05:51:14;101559.09;;;8.34;100.00
41898;BME280;27576;53.366;-1.498;2023-04-19T05:53:42;101553.66;;;8.28;100.00
41898;BME280;27576;53.366;-1.498;2023-04-19T05:56:07;101535.03;;;8.15;100.00
41898;BME280;27576;53.366;-1.498;2023-04-19T05:58:32;101560.66;;;8.31;100.00
41898;BME280;27576;53.366;-1.498;2023-04-19T06:00:58;101551.91;;;8.27;100.00
41898;BME280;27576;53.366;-1.498;2023-04-19T06:03:23;101589.63;;;8.45;100.00
41898;BME280;27576;53.366;-1.498;2023-04-19T06:05:49;101584.59;;;8.48;100.00
41898;BME280;27576;53.366;-1.498;2023-04-19T06:08:14;101569.47;;;8.36;100.00
41898;BME280;27576;53.366;-1.498;2023-04-19T06:10:41;101584.47;;;8.45;100.00
41898;BME280;27576;53.366;-1.498;2023-04-19T06:13:08;101557.31;;;8.33;100.00
41898;BME280;27576;53.366;-1.498;2023-04-19T06:15:33;101578.25;;;8.40;100.00
41898;BME280;27576;53.366;-1.498;2023-04-19T06:18:00;101569.47;;;8.36;100.00
41898;BME280;27576;53.366;-1.498;2023-04-19T06:20:25;101572.81;;;8.33;100.00
41898;BME280;27576;53.366;-1.498;2023-04-19T06:22:50;101580.84;;;8.40;100.00
41898;BME280;27576;53.366;-1.498;2023-04-19T06:25:16;101579.06;;;8.39;100.00
41898;BME280;27576;53.366;-1.498;2023-04-19T06:27:42;101567.56;;;8.32;100.00
41898;BME280;27576;53.366;-1.498;2023-04-19T06:30:08;101579.03;;;8.37;100.00
41898;BME280;27576;53.366;-1.498;2023-04-19T06:32:33;101512.09;;;8.01;100.00
41898;BME280;27576;53.366;-1.498;2023-04-19T06:34:58;101575.50;;;8.36;100.00
41898;BME280;27576;53.366;-1.498;2023-04-19T06:37:24;101559.69;;;8.29;100.00
41898;BME280;27576;53.366;-1.498;2023-04-19T06:39:49;101582.53;;;8.39;100.00
41898;BME280;27576;53.366;-1.498;2023-04-19T06:42:14;101594.00;;;8.46;100.00
41898;BME280;27576;53.366;-1.498;2023-04-19T06:44:42;101581.50;;;8.35;100.00
41898;BME280;27576;53.366;-1.498;2023-04-19T06:47:08;101575.75;;;8.41;100.00
41898;BME280;27576;53.366;-1.498;2023-04-19T06:49:33;101560.53;;;8.28;100.00
41898;BME280;27576;53.366;-1.498;2023-04-19T06:51:59;101562.50;;;8.33;100.00
41898;BME280;27576;53.366;-1.498;2023-04-19T06:54:24;101587.31;;;8.51;100.00
41898;BME280;27576;53.366;-1.498;2023-04-19T06:56:49;101566.22;;;8.40;100.00
41898;BME280;27576;53.366;-1.498;2023-04-19T06:59:17;101581.13;;;8.47;100.00
41898;BME280;27576;53.366;-1.498;2023-04-19T07:01:44;101547.75;;;8.31;100.00
41898;BME280;27576;53.366;-1.498;2023-04-19T07:04:10;101583.19;;;8.56;100.00
41898;BME280;27576;53.366;-1.498;2023-04-19T07:06:36;101592.75;;;8.57;100.00
41898;BME280;27576;53.366;-1.498;2023-04-19T07:09:03;101583.91;;;8.52;100.00
41898;BME280;27576;53.366;-1.498;2023-04-19T07:11:29;101594.63;;;8.61;100.00
41898;BME280;27576;53.366;-1.498;2023-04-19T07:13:55;101569.34;;;8.54;100.00
41898;BME280;27576;53.366;-1.498;2023-04-19T07:16:21;101574.66;;;8.57;100.00
41898;BME280;27576;53.366;-1.498;2023-04-19T07:18:46;101578.28;;;8.62;100.00
41898;BME280;27576;53.366;-1.498;2023-04-19T07:21:11;101577.47;;;8.63;100.00
41898;BME280;27576;53.366;-1.498;2023-04-19T07:23:37;101599.41;;;8.73;100.00
41898;BME280;27576;53.366;-1.498;2023-04-19T07:26:02;101582.81;;;8.68;100.00
41898;BME280;27576;53.366;-1.498;2023-04-19T07:28:28;101554.56;;;8.50;100.00
41898;BME280;27576;53.366;-1.498;2023-04-19T07:30:53;101577.59;;;8.66;100.00
41898;BME280;27576;53.366;-1.498;2023-04-19T07:33:19;101557.50;;;8.59;100.00
41898;BME280;27576;53.366;-1.498;2023-04-19T07:35:44;101574.44;;;8.73;100.00
41898;BME280;27576;53.366;-1.498;2023-04-19T07:38:10;101580.00;;;8.84;100.00
41898;BME280;27576;53.366;-1.498;2023-04-19T07:40:35;101595.28;;;9.00;100.00
41898;BME280;27576;53.366;-1.498;2023-04-19T07:43:00;101592.81;;;9.03;100.00
41898;BME280;27576;53.366;-1.498;2023-04-19T07:45:26;101568.19;;;8.91;100.00
41898;BME280;27576;53.366;-1.498;2023-04-19T07:47:52;101585.16;;;9.06;100.00
41898;BME280;27576;53.366;-1.498;2023-04-19T07:50:17;101556.09;;;8.90;100.00
41898;BME280;27576;53.366;-1.498;2023-04-19T07:52:43;101564.19;;;8.99;100.00
41898;BME280;27576;53.366;-1.498;2023-04-19T07:55:08;101584.41;;;9.09;100.00
41898;BME280;27576;53.366;-1.498;2023-04-19T07:57:34;101590.72;;;9.16;100.00
41898;BME280;27576;53.366;-1.498;2023-04-19T08:00:00;101582.03;;;9.15;100.00
41898;BME280;27576;53.366;-1.498;2023-04-19T08:02:26;101596.22;;;9.25;100.00
41898;BME280;27576;53.366;-1.498;2023-04-19T08:04:52;101595.09;;;9.18;100.00
41898;BME280;27576;53.366;-1.498;2023-04-19T08:07:17;101606.56;;;9.25;100.00
41898;BME280;27576;53.366;-1.498;2023-04-19T08:09:43;101571.47;;;9.09;100.00
41898;BME280;27576;53.366;-1.498;2023-04-19T08:12:08;101567.31;;;9.13;100.00
41898;BME280;27576;53.366;-1.498;2023-04-19T08:14:33;101592.84;;;9.27;100.00
41898;BME280;27576;53.366;-1.498;2023-04-19T08:16:59;101583.78;;;9.39;100.00
41898;BME280;27576;53.366;-1.498;2023-04-19T08:19:24;101556.16;;;9.38;100.00
41898;BME280;27576;53.366;-1.498;2023-04-19T08:21:49;101573.84;;;9.51;100.00
41898;BME280;27576;53.366;-1.498;2023-04-19T08:24:15;101584.59;;;9.62;100.00
41898;BME280;27576;53.366;-1.498;2023-04-19T08:26:40;101586.63;;;9.70;100.00
41898;BME280;27576;53.366;-1.498;2023-04-19T08:29:06;101552.66;;;9.61;100.00
41898;BME280;27576;53.366;-1.498;2023-04-19T08:31:32;101575.56;;;9.74;100.00
41898;BME280;27576;53.366;-1.498;2023-04-19T08:33:57;101589.75;;;9.86;100.00
41898;BME280;27576;53.366;-1.498;2023-04-19T08:36:24;101603.81;;;9.92;100.00
41898;BME280;27576;53.366;-1.498;2023-04-19T08:38:50;101596.91;;;9.93;100.00
41898;BME280;27576;53.366;-1.498;2023-04-19T08:41:17;101590.59;;;9.84;100.00
41898;BME280;27576;53.366;-1.498;2023-04-19T08:43:44;101603.75;;;9.91;100.00
41898;BME280;27576;53.366;-1.498;2023-04-19T08:46:10;101594.13;;;9.87;100.00
41898;BME280;27576;53.366;-1.498;2023-04-19T08:48:36;101582.66;;;9.80;100.00
41898;BME280;27576;53.366;-1.498;2023-04-19T08:51:02;101606.34;;;9.91;100.00
41898;BME280;27576;53.366;-1.498;2023-04-19T08:53:28;101584.25;;;9.76;100.00
41898;BME280;27576;53.366;-1.498;2023-04-19T08:55:54;101602.84;;;9.90;100.00
41898;BME280;27576;53.366;-1.498;2023-04-19T08:58:25;101549.97;;;9.58;100.00
41898;BME280;27576;53.366;-1.498;2023-04-19T09:00:53;101592.34;;;9.86;100.00
41898;BME280;27576;53.366;-1.498;2023-04-19T09:03:19;101590.69;;;9.88;100.00
41898;BME280;27576;53.366;-1.498;2023-04-19T09:05:44;101593.41;;;9.91;100.00
41898;BME280;27576;53.366;-1.498;2023-04-19T09:10:57;101587.03;;;10.06;100.00
41898;BME280;27576;53.366;-1.498;2023-04-19T09:13:23;101569.56;;;10.01;100.00
41898;BME280;27576;53.366;-1.498;2023-04-19T09:15:49;101578.56;;;10.12;100.00
41898;BME280;27576;53.366;-1.498;2023-04-19T09:18:16;101579.66;;;10.19;100.00
41898;BME280;27576;53.366;-1.498;2023-04-19T09:20:42;101586.94;;;10.29;100.00
41898;BME280;27576;53.366;-1.498;2023-04-19T09:23:10;101591.34;;;10.31;100.00
41898;BME280;27576;53.366;-1.498;2023-04-19T09:25:37;101579.13;;;10.27;100.00
41898;BME280;27576;53.366;-1.498;2023-04-19T09:28:10;101585.47;;;10.37;100.00
41898;BME280;27576;53.366;-1.498;2023-04-19T09:30:37;101543.56;;;10.23;100.00
41898;BME280;27576;53.366;-1.498;2023-04-19T09:33:03;101579.13;;;10.54;100.00
41898;BME280;27576;53.366;-1.498;2023-04-19T09:35:45;101581.13;;;10.63;100.00
41898;BME280;27576;53.366;-1.498;2023-04-19T09:38:14;101555.81;;;10.54;100.00
41898;BME280;27576;53.366;-1.498;2023-04-19T09:40:40;101579.84;;;10.77;100.00
41898;BME280;27576;53.366;-1.498;2023-04-19T09:43:06;101536.22;;;10.64;100.00
41898;BME280;27576;53.366;-1.498;2023-04-19T09:45:42;101583.94;;;10.98;100.00
41898;BME280;27576;53.366;-1.498;2023-04-19T09:51:43;101579.00;;;11.07;100.00
41898;BME280;27576;53.366;-1.498;2023-04-19T09:54:10;101579.34;;;11.19;100.00
41898;BME280;27576;53.366;-1.498;2023-04-19T09:56:36;101582.28;;;11.31;100.00
41898;BME280;27576;53.366;-1.498;2023-04-19T09:59:02;101574.78;;;11.41;100.00
41898;BME280;27576;53.366;-1.498;2023-04-19T10:01:30;101570.78;;;11.52;100.00
41898;BME280;27576;53.366;-1.498;2023-04-19T10:03:59;101564.19;;;11.63;100.00
41898;BME280;27576;53.366;-1.498;2023-04-19T10:06:25;101549.59;;;11.68;100.00
41898;BME280;27576;53.366;-1.498;2023-04-19T10:08:52;101555.63;;;11.67;100.00
41898;BME280;27576;53.366;-1.498;2023-04-19T10:11:20;101559.78;;;11.61;100.00
41898;BME280;27576;53.366;-1.498;2023-04-19T10:13:47;101536.72;;;11.40;100.00
41898;BME280;27576;53.366;-1.498;2023-04-19T10:16:15;101543.59;;;11.39;100.00
41898;BME280;27576;53.366;-1.498;2023-04-19T10:18:41;101554.19;;;11.47;100.00
41898;BME280;27576;53.366;-1.498;2023-04-19T10:21:07;101545.31;;;11.39;100.00
41898;BME280;27576;53.366;-1.498;2023-04-19T10:23:35;101545.91;;;11.28;100.00
41898;BME280;27576;53.366;-1.498;2023-04-19T10:26:01;101536.09;;;11.18;100.00
41898;BME280;27576;53.366;-1.498;2023-04-19T10:28:29;101523.63;;;11.05;100.00
41898;BME280;27576;53.366;-1.498;2023-04-19T10:31:02;101560.44;;;11.23;100.00
41898;BME280;27576;53.366;-1.498;2023-04-19T10:33:36;101551.03;;;11.27;100.00
41898;BME280;27576;53.366;-1.498;2023-04-19T10:36:02;101538.91;;;11.26;100.00
41898;BME280;27576;53.366;-1.498;2023-04-19T10:38:36;101529.41;;;11.26;100.00
41898;BME280;27576;53.366;-1.498;2023-04-19T10:41:02;101547.47;;;11.55;100.00
41898;BME280;27576;53.366;-1.498;2023-04-19T10:43:32;101541.72;;;11.65;100.00
41898;BME280;27576;53.366;-1.498;2023-04-19T10:49:00;101514.31;;;11.76;100.00
41898;BME280;27576;53.366;-1.498;2023-04-19T10:51:27;101536.50;;;11.97;100.00
41898;BME280;27576;53.366;-1.498;2023-04-19T10:54:00;101527.06;;;12.00;100.00
41898;BME280;27576;53.366;-1.498;2023-04-19T11:01:49;101530.72;;;12.09;100.00
41898;BME280;27576;53.366;-1.498;2023-04-19T11:07:04;101521.00;;;12.00;100.00
41898;BME280;27576;53.366;-1.498;2023-04-19T11:09:44;101524.84;;;12.16;100.00
41898;BME280;27576;53.366;-1.498;2023-04-19T11:12:11;101516.28;;;12.20;100.00
41898;BME280;27576;53.366;-1.498;2023-04-19T11:14:45;101512.94;;;12.25;100.00
41898;BME280;27576;53.366;-1.498;2023-04-19T11:17:14;101529.75;;;12.40;100.00
41898;BME280;27576;53.366;-1.498;2023-04-19T11:19:44;101520.31;;;12.45;100.00
41898;BME280;27576;53.366;-1.498;2023-04-19T11:22:16;101503.84;;;12.44;99.31
41898;BME280;27576;53.366;-1.498;2023-04-19T11:24:45;101534.78;;;12.71;96.83
41898;BME280;27576;53.366;-1.498;2023-04-19T11:27:14;101501.06;;;12.74;96.93
41898;BME280;27576;53.366;-1.498;2023-04-19T11:29:39;101513.72;;;12.98;95.91
41898;BME280;27576;53.366;-1.498;2023-04-19T11:32:05;101488.38;;;12.90;94.27
41898;BME280;27576;53.366;-1.498;2023-04-19T11:34:40;101514.88;;;13.14;95.22
41898;BME280;27576;53.366;-1.498;2023-04-19T11:37:05;101510.03;;;13.30;94.46
41898;BME280;27576;53.366;-1.498;2023-04-19T11:39:31;101520.81;;;13.51;93.42
41898;BME280;27576;53.366;-1.498;2023-04-19T11:41:56;101488.66;;;13.47;92.50
41898;BME280;27576;53.366;-1.498;2023-04-19T11:44:22;101474.94;;;13.58;90.04
41898;BME280;27576;53.366;-1.498;2023-04-19T11:47:01;101494.72;;;13.96;89.08
41898;BME280;27576;53.366;-1.498;2023-04-19T11:49:29;101504.16;;;14.44;90.29
41898;BME280;27576;53.366;-1.498;2023-04-19T11:51:59;101499.28;;;14.69;86.00
41898;BME280;27576;53.366;-1.498;2023-04-19T11:54:25;101473.34;;;14.78;84.69
41898;BME280;27576;53.366;-1.498;2023-04-19T11:57:02;101503.22;;;15.02;82.68
41898;BME280;27576;53.366;-1.498;2023-04-19T11:59:28;101475.34;;;15.01;79.75
41898;BME280;27576;53.366;-1.498;2023-04-19T12:01:54;101504.22;;;15.16;79.05
41898;BME280;27576;53.366;-1.498;2023-04-19T12:04:20;101503.19;;;15.00;79.64
41898;BME280;27576;53.366;-1.498;2023-04-19T12:06:55;101496.84;;;14.80;78.90
41898;BME280;27576;53.366;-1.498;2023-04-19T12:09:21;101498.41;;;14.68;80.50
41898;BME280;27576;53.366;-1.498;2023-04-19T12:11:47;101491.28;;;14.55;82.16
41898;BME280;27576;53.366;-1.498;2023-04-19T12:14:16;101497.44;;;14.59;79.62
41898;BME280;27576;53.366;-1.498;2023-04-19T12:17:03;101487.63;;;14.44;74.75
41898;BME280;27576;53.366;-1.498;2023-04-19T12:19:34;101499.69;;;14.36;77.70
41898;BME280;27576;53.366;-1.498;2023-04-19T12:22:11;101491.75;;;14.30;78.47
41898;BME280;27576;53.366;-1.498;2023-04-19T12:24:37;101486.28;;;14.11;79.79
41898;BME280;27576;53.366;-1.498;2023-04-19T12:27:03;101499.25;;;14.08;79.22
41898;BME280;27576;53.366;-1.498;2023-04-19T12:29:29;101483.50;;;14.02;79.66
41898;BME280;27576;53.366;-1.498;2023-04-19T12:31:54;101474.72;;;13.95;80.24
41898;BME280;27576;53.366;-1.498;2023-04-19T12:34:19;101487.88;;;14.03;78.17
41898;BME280;27576;53.366;-1.498;2023-04-19T12:36:45;101452.34;;;14.10;79.53
41898;BME280;27576;53.366;-1.498;2023-04-19T12:39:10;101491.09;;;15.07;78.80
41898;BME280;27576;53.366;-1.498;2023-04-19T12:41:36;101473.50;;;15.73;72.73
41898;BME280;27576;53.366;-1.498;2023-04-19T12:44:01;101461.34;;;15.79;68.84
41898;BME280;27576;53.366;-1.498;2023-04-19T12:46:27;101444.88;;;15.89;67.97
41898;BME280;27576;53.366;-1.498;2023-04-19T12:48:52;101462.38;;;15.97;65.93
41898;BME280;27576;53.366;-1.498;2023-04-19T12:51:17;101457.38;;;16.29;65.03